Perkinstown, Wisconsin
Current Conditions -  °F | °C
As of 11:35 PM on Wednesday 17 Dec 2014 (Local Time) from KMDZ Reporting Station
Overcast Overcast  
Wind Chill: 21°   Ceiling: 1000
Heat Index: 21°   Visibility: 10mi
Dew Point: 18°   Wind: 3mph
Humidity: 89%   Direction: 240°WSW
Pressure: 30.24"   Gusts: NA
Location:  45.2044°N, 90.4212°W
Report Text: KMDZ 180535Z AUTO 24003KT 10SM OVC010 M06/M08 A3024 RMK AO2 T10611076
Loading
Personal Weather Stations






























Interactive Weather Map New forecast layout! Learn more

10-Day Weather Forecast

Advertisements
Track Severe Weather on mobile